Time;durP1;ratioP1;P1;durP2;ratioP2;P2;SDS_P1;SDS_P2;PMS_P1;PMS_P2;Temp;Humidity;BMP_temperature;BMP_pressure;BME280_temperature;BME280_humidity;BME280_pressure;Samples;Min_cycle;Max_cycle;Signal;HPM_P1;HPM_P2
2023/12/15 00:04:39;;;;;;;0.30;0.25;;;;;;;24.30;72.37;102566.38;10459641;28;20077;-83
2023/12/15 00:09:41;;;;;;;1.08;0.95;;;;;;;23.01;72.86;102578.03;10459529;28;20432;-82
2023/12/15 00:14:43;;;;;;;1.85;1.05;;;;;;;24.14;72.66;102583.13;10441565;28;20133;-82
2023/12/15 00:19:45;;;;;;;0.63;0.40;;;;;;;24.71;71.68;102591.63;10451795;28;20140;-82
2023/12/15 00:24:46;;;;;;;0.60;0.60;;;;;;;27.01;67.47;102611.13;10460293;28;20049;-83
2023/12/15 00:29:48;;;;;;;0.50;0.50;;;;;;;25.58;68.70;102627.00;10474579;28;20037;-82
2023/12/15 00:34:50;;;;;;;2.60;1.98;;;;;;;24.13;72.02;102634.03;10440728;28;20515;-82
2023/12/15 00:39:52;;;;;;;1.90;1.17;;;;;;;23.27;74.22;102630.66;10467253;28;20454;-82
2023/12/15 00:44:56;;;;;;;0.30;0.30;;;;;;;25.24;71.87;102643.09;10446560;28;20128;-82
2023/12/15 00:49:59;;;;;;;0.75;0.75;;;;;;;24.04;73.17;102635.81;10452291;28;20055;-83
2023/12/15 00:55:01;;;;;;;1.83;1.45;;;;;;;23.92;75.08;102641.94;10463018;28;20059;-83
2023/12/15 01:00:03;;;;;;;0.73;0.73;;;;;;;25.70;71.73;102645.34;10437898;28;20478;-82
2023/12/15 01:05:05;;;;;;;0.65;0.57;;;;;;;23.33;73.94;102635.91;10453427;28;20048;-83
2023/12/15 01:10:07;;;;;;;0.57;0.57;;;;;;;23.73;71.30;102630.59;10445017;28;20102;-83
2023/12/15 01:15:09;;;;;;;1.63;0.95;;;;;;;23.50;73.80;102635.88;10442166;28;20049;-82
2023/12/15 01:20:13;;;;;;;0.70;0.70;;;;;;;25.18;72.52;102636.09;10443311;28;20136;-84
2023/12/15 01:25:15;;;;;;;0.88;0.75;;;;;;;26.41;69.85;102646.31;10461490;28;20139;-83
2023/12/15 01:30:17;;;;;;;3.88;1.08;;;;;;;25.43;70.91;102665.81;10449770;28;20046;-83
2023/12/15 01:35:19;;;;;;;0.40;0.40;;;;;;;26.48;69.78;102678.81;10428204;28;20056;-82
2023/12/15 01:40:20;;;;;;;0.98;0.98;;;;;;;25.37;71.52;102675.50;10429963;28;20045;-82
2023/12/15 01:45:22;;;;;;;1.73;1.02;;;;;;;25.62;71.15;102686.75;10426594;28;20128;-83
2023/12/15 01:50:24;;;;;;;1.50;1.17;;;;;;;26.04;70.19;102695.16;10430207;28;20060;-83
2023/12/15 01:55:25;;;;;;;2.15;1.42;;;;;;;25.83;70.75;102690.09;10422768;28;20107;-82
2023/12/15 02:00:27;;;;;;;2.03;1.70;;;;;;;26.25;71.12;102699.34;10428559;28;20068;-83
2023/12/15 02:05:29;;;;;;;0.70;0.70;;;;;;;26.64;70.90;102705.91;10454700;28;20037;-83
2023/12/15 02:10:31;;;;;;;2.92;1.67;;;;;;;27.86;69.55;102697.00;10438881;28;20477;-83
2023/12/15 02:15:32;;;;;;;2.42;0.93;;;;;;;25.90;72.48;102708.50;10453757;28;20503;-84
2023/12/15 02:20:34;;;;;;;2.90;1.85;;;;;;;24.17;73.36;102698.94;10437347;28;20057;-83
2023/12/15 02:25:36;;;;;;;4.95;2.85;;;;;;;27.10;70.33;102713.25;10429666;28;20051;-83
2023/12/15 02:30:38;;;;;;;1.33;1.23;;;;;;;26.64;69.60;102722.69;10452413;28;20527;-83
2023/12/15 02:35:41;;;;;;;3.50;1.55;;;;;;;26.27;70.23;102728.41;10441809;28;20140;-83
2023/12/15 02:40:44;;;;;;;1.90;1.50;;;;;;;26.55;71.58;102738.66;10428775;28;20049;-83
2023/12/15 02:45:46;;;;;;;1.17;1.02;;;;;;;26.25;71.82;102741.59;10448820;28;20049;-83
2023/12/15 02:50:48;;;;;;;1.45;0.88;;;;;;;25.78;72.79;102745.59;10436285;28;20110;-83
2023/12/15 02:55:49;;;;;;;0.75;0.60;;;;;;;26.20;71.72;102746.06;10460466;28;20037;-83
2023/12/15 03:00:51;;;;;;;1.33;0.93;;;;;;;25.19;74.07;102751.28;10428127;28;20049;-82
2023/12/15 03:05:53;;;;;;;1.70;0.93;;;;;;;27.56;69.37;102761.94;10437383;28;20140;-83
2023/12/15 03:10:57;;;;;;;2.90;1.45;;;;;;;26.50;71.63;102778.34;10434537;28;20663;-82
2023/12/15 03:16:08;;;;;;;2.58;1.17;;;;;;;27.57;70.14;102784.88;10451597;28;20531;-83
2023/12/15 03:21:09;;;;;;;0.80;0.70;;;;;;;28.31;68.70;102793.34;10454452;28;20127;-83
2023/12/15 03:26:11;;;;;;;1.25;1.00;;;;;;;27.22;70.03;102792.41;10443742;28;20076;-82
2023/12/15 03:31:13;;;;;;;3.13;2.15;;;;;;;27.61;70.32;102791.91;10425980;28;20567;-83
2023/12/15 03:36:15;;;;;;;0.68;0.55;;;;;;;27.91;69.66;102794.03;10446489;28;20399;-82
2023/12/15 03:41:16;;;;;;;7.63;2.17;;;;;;;25.56;73.28;102809.09;10438310;28;20148;-82
2023/12/15 03:46:18;;;;;;;2.60;1.90;;;;;;;25.41;74.89;102804.78;10446015;28;20422;-82
2023/12/15 03:51:20;;;;;;;4.28;2.05;;;;;;;26.31;73.01;102816.44;10446587;28;20472;-82
2023/12/15 03:56:25;;;;;;;2.13;0.93;;;;;;;27.40;71.32;102804.50;10446562;28;20555;-82
2023/12/15 04:01:29;;;;;;;0.95;0.85;;;;;;;27.78;71.36;102803.97;10474416;28;20053;-82
2023/12/15 04:06:31;;;;;;;5.07;1.83;;;;;;;27.35;71.26;102808.13;10436596;28;20053;-82
2023/12/15 04:11:33;;;;;;;1.35;1.25;;;;;;;27.99;69.08;102818.63;10432698;28;20081;-82
2023/12/15 04:16:35;;;;;;;3.60;1.80;;;;;;;26.85;71.40;102822.00;10452431;28;20060;-82
2023/12/15 04:21:37;;;;;;;3.17;1.73;;;;;;;24.76;75.19;102823.53;10448678;28;20411;-81
2023/12/15 04:26:38;;;;;;;1.92;1.40;;;;;;;27.60;71.30;102816.63;10431414;28;20047;-82
2023/12/15 04:31:40;;;;;;;3.25;2.33;;;;;;;27.43;72.11;102838.06;10447508;28;20045;-82
2023/12/15 04:36:42;;;;;;;4.43;2.35;;;;;;;28.50;70.26;102842.44;10435136;28;20477;-82
2023/12/15 04:41:43;;;;;;;3.22;1.90;;;;;;;27.91;71.79;102844.34;10429991;28;20051;-81
2023/12/15 04:46:45;;;;;;;2.33;2.05;;;;;;;27.85;70.62;102859.47;10439517;28;20144;-82
2023/12/15 04:51:47;;;;;;;5.47;1.27;;;;;;;26.27;72.68;102861.38;10448931;28;20049;-82
2023/12/15 04:56:49;;;;;;;4.95;2.25;;;;;;;26.12;74.60;102857.13;10436799;28;20083;-82
2023/12/15 05:01:50;;;;;;;5.22;2.25;;;;;;;27.66;72.29;102865.97;10462398;28;20056;-82
2023/12/15 05:06:52;;;;;;;1.92;1.73;;;;;;;28.25;71.28;102863.25;10462273;28;20041;-83
2023/12/15 05:11:55;;;;;;;1.83;1.42;;;;;;;26.28;72.28;102868.41;10446036;28;20045;-82
2023/12/15 05:16:57;;;;;;;5.70;2.20;;;;;;;26.12;74.17;102877.34;10453018;28;20784;-82
2023/12/15 05:21:59;;;;;;;2.60;1.88;;;;;;;28.68;70.76;102881.91;10446538;28;20081;-82
2023/12/15 05:27:01;;;;;;;1.05;0.93;;;;;;;26.64;72.14;102907.72;10435855;28;20045;-82
2023/12/15 05:32:03;;;;;;;4.13;2.13;;;;;;;28.18;70.88;102910.16;10474396;28;20051;-82
2023/12/15 05:37:05;;;;;;;1.98;1.42;;;;;;;28.42;70.83;102909.78;10448143;28;20061;-82
2023/12/15 05:42:07;;;;;;;4.45;2.40;;;;;;;28.36;70.85;102915.19;10444640;28;20403;-82
2023/12/15 05:47:09;;;;;;;4.07;1.83;;;;;;;27.54;72.90;102918.16;10442579;28;20069;-82
2023/12/15 05:52:11;;;;;;;4.65;1.90;;;;;;;26.83;73.13;102918.13;10454537;28;20405;-82
2023/12/15 05:57:13;;;;;;;5.93;2.75;;;;;;;26.92;74.79;102908.31;10432556;28;20041;-82
2023/12/15 06:02:15;;;;;;;3.13;2.13;;;;;;;27.49;73.71;102909.44;10422191;28;20123;-82
2023/12/15 06:07:18;;;;;;;2.33;1.52;;;;;;;27.04;74.48;102914.38;10432309;28;20562;-82
2023/12/15 06:12:19;;;;;;;6.60;3.80;;;;;;;27.59;72.47;102936.66;10435950;28;20036;-82
2023/12/15 06:17:21;;;;;;;1.75;1.35;;;;;;;27.21;72.63;102946.81;10454295;28;20396;-82
2023/12/15 06:22:23;;;;;;;1.60;1.25;;;;;;;28.31;72.33;102937.34;10453555;28;20053;-82
2023/12/15 06:27:24;;;;;;;1.92;1.45;;;;;;;26.32;74.83;102943.25;10427922;28;20496;-83
2023/12/15 06:32:26;;;;;;;2.33;1.70;;;;;;;28.10;71.56;102946.53;10470806;28;20050;-83
2023/12/15 06:37:28;;;;;;;2.67;1.83;;;;;;;27.49;71.19;102954.44;10455997;28;20032;-83
2023/12/15 06:42:30;;;;;;;1.23;1.02;;;;;;;29.12;69.87;102946.50;10457339;28;20491;-83
2023/12/15 06:47:32;;;;;;;4.78;2.80;;;;;;;28.99;69.16;102951.19;10449830;28;20053;-82
2023/12/15 06:52:35;;;;;;;23.75;1.10;;;;;;;29.60;67.11;102980.03;10436998;28;20045;-82
2023/12/15 06:57:37;;;;;;;1.75;0.52;;;;;;;29.13;67.64;102975.69;10442488;28;20065;-82
2023/12/15 07:02:39;;;;;;;1.08;0.77;;;;;;;29.91;67.17;102974.06;10472064;28;20061;-82
2023/12/15 07:07:41;;;;;;;1.83;1.25;;;;;;;31.49;64.67;102991.25;10451923;28;20045;-84
2023/12/15 07:12:43;;;;;;;1.33;1.23;;;;;;;31.30;64.05;103004.25;10451705;28;20128;-84
2023/12/15 07:17:45;;;;;;;2.65;1.27;;;;;;;32.18;61.95;103020.25;10434063;28;20064;-84
2023/12/15 07:22:47;;;;;;;0.77;0.77;;;;;;;29.57;65.41;103022.63;10441200;28;20084;-83
2023/12/15 07:27:49;;;;;;;0.77;0.50;;;;;;;30.38;64.21;103027.91;10442776;28;20052;-85
2023/12/15 07:32:51;;;;;;;4.20;1.20;;;;;;;30.71;64.38;103027.09;10431014;28;21553;-83
2023/12/15 07:37:55;;;;;;;2.03;1.63;;;;;;;28.55;67.96;103043.03;10436114;28;20037;-83
2023/12/15 07:42:57;;;;;;;0.77;0.77;;;;;;;28.99;69.50;103040.50;10441499;28;20045;-83
2023/12/15 07:47:59;;;;;;;3.35;1.30;;;;;;;29.55;68.05;103043.91;10444888;28;20118;-83
2023/12/15 07:53:01;;;;;;;1.67;1.25;;;;;;;28.39;70.18;103048.56;10418521;28;20103;-83
2023/12/15 07:58:04;;;;;;;1.83;0.77;;;;;;;28.85;69.39;103062.00;10457644;28;20045;-83
2023/12/15 08:03:06;;;;;;;1.02;0.93;;;;;;;29.07;69.44;103066.03;10438381;28;20048;-83
2023/12/15 08:08:08;;;;;;;2.80;1.63;;;;;;;28.13;70.89;103073.66;10449747;28;20048;-82
2023/12/15 08:13:13;;;;;;;5.43;1.65;;;;;;;28.23;71.39;103082.34;10447873;28;20129;-83
2023/12/15 08:18:15;;;;;;;2.63;2.10;;;;;;;29.12;70.59;103082.75;10453792;28;20059;-83
2023/12/15 08:23:17;;;;;;;2.33;1.50;;;;;;;27.95;71.93;103100.38;10451852;28;20041;-82
2023/12/15 08:28:20;;;;;;;4.63;2.20;;;;;;;28.44;71.13;103112.13;10462047;28;20052;-83
2023/12/15 08:33:22;;;;;;;2.40;1.35;;;;;;;28.54;71.08;103123.47;10445675;28;20049;-83
2023/12/15 08:38:24;;;;;;;3.35;2.03;;;;;;;28.17;72.10;103130.13;10440545;28;20063;-83
2023/12/15 08:43:26;;;;;;;2.20;1.08;;;;;;;28.50;72.51;103134.09;10424899;28;20500;-82
2023/12/15 08:48:28;;;;;;;3.78;1.83;;;;;;;28.77;72.34;103139.94;10444074;28;20059;-82
2023/12/15 08:53:30;;;;;;;2.78;1.77;;;;;;;28.27;72.07;103157.38;10435814;28;20056;-82
2023/12/15 08:58:32;;;;;;;4.60;1.95;;;;;;;29.31;71.24;103158.53;10434648;28;20161;-83
2023/12/15 09:03:34;;;;;;;4.32;2.08;;;;;;;30.24;69.68;103162.94;10453371;28;20040;-83
2023/12/15 09:08:36;;;;;;;0.70;0.68;;;;;;;29.16;70.27;103175.56;10439046;28;20049;-82
2023/12/15 09:13:38;;;;;;;8.82;1.02;;;;;;;29.26;70.53;103182.47;10465056;28;20055;-83
2023/12/15 09:18:40;;;;;;;2.65;1.50;;;;;;;28.64;71.96;103183.41;10438697;28;20488;-83
2023/12/15 09:23:42;;;;;;;4.75;2.33;;;;;;;28.67;72.49;103199.28;10451156;28;20041;-83
2023/12/15 09:28:44;;;;;;;1.95;1.23;;;;;;;30.02;69.68;103208.59;10435053;28;20120;-83
2023/12/15 09:33:46;;;;;;;3.30;1.75;;;;;;;29.96;71.31;103215.78;10442148;28;20300;-83
2023/12/15 09:38:48;;;;;;;3.20;2.13;;;;;;;29.66;70.39;103226.94;10461150;28;20037;-83
2023/12/15 09:43:50;;;;;;;2.67;1.67;;;;;;;28.77;71.62;103243.38;10438512;28;20041;-82
2023/12/15 09:48:52;;;;;;;3.45;2.08;;;;;;;29.46;70.12;103260.94;10467164;28;20780;-81
2023/12/15 09:53:54;;;;;;;2.42;1.52;;;;;;;29.52;71.45;103274.13;10450478;28;20045;-83
2023/12/15 09:58:56;;;;;;;1.42;0.95;;;;;;;29.48;70.42;103285.69;10445758;28;20036;-82
2023/12/15 10:03:58;;;;;;;3.60;1.73;;;;;;;29.95;70.78;103278.72;10445335;28;20137;-83
2023/12/15 10:09:00;;;;;;;1.98;1.80;;;;;;;31.17;68.97;103272.63;10443416;28;20077;-84
2023/12/15 10:14:04;;;;;;;1.30;0.98;;;;;;;28.85;71.19;103271.56;10452048;28;20065;-82
2023/12/15 10:19:08;;;;;;;5.93;1.50;;;;;;;30.18;70.23;103275.59;10434691;28;20048;-82
2023/12/15 10:24:24;;;;;;;1.90;0.93;;;;;;;30.35;69.66;103293.84;10449441;28;20076;-82
2023/12/15 10:29:26;;;;;;;5.13;1.92;;;;;;;29.05;71.67;103290.75;10448723;28;20096;-81
2023/12/15 10:34:28;;;;;;;4.63;2.50;;;;;;;30.23;70.84;103310.06;10450731;28;20567;-83
2023/12/15 10:39:30;;;;;;;3.65;2.42;;;;;;;29.56;71.78;103307.69;10447799;28;20673;-82
2023/12/15 10:44:34;;;;;;;3.97;2.25;;;;;;;29.01;71.37;103320.00;10438915;28;20037;-82
2023/12/15 10:49:37;;;;;;;1.45;1.23;;;;;;;30.59;70.03;103347.50;10443939;28;20645;-84
2023/12/15 10:54:59;;;;;;;4.43;2.25;;;;;;;30.96;70.02;103338.72;10454539;28;20053;-84
2023/12/15 11:00:04;;;;;;;3.10;2.20;;;;;;;29.90;70.86;103326.59;10449698;28;20135;-83
2023/12/15 11:05:09;;;;;;;5.40;2.08;;;;;;;31.27;69.38;103322.09;10445727;28;20488;-84
2023/12/15 11:10:12;;;;;;;1.85;1.73;;;;;;;30.67;70.15;103331.41;10447402;28;20056;-84
2023/12/15 11:15:20;;;;;;;3.20;2.15;;;;;;;30.03;69.98;103340.56;10453722;28;20044;-83
2023/12/15 11:20:22;;;;;;;3.40;1.63;;;;;;;29.78;71.90;103349.81;10445258;28;20471;-82
2023/12/15 11:25:26;;;;;;;2.30;1.42;;;;;;;29.53;72.22;103347.56;10441801;28;20046;-82
2023/12/15 11:30:42;;;;;;;0.90;0.82;;;;;;;29.42;72.37;103345.97;10438221;28;20072;-84
2023/12/15 11:35:51;;;;;;;1.73;1.00;;;;;;;30.30;70.55;103361.34;10430688;28;20055;-85
2023/12/15 11:40:54;;;;;;;2.23;1.60;;;;;;;29.97;70.44;103364.59;10431802;28;20102;-84
2023/12/15 11:45:57;;;;;;;2.47;1.05;;;;;;;30.40;70.31;103373.56;10421191;28;20463;-85
2023/12/15 11:51:00;;;;;;;2.42;1.20;;;;;;;30.18;71.76;103359.81;10456063;28;20496;-84
2023/12/15 11:56:04;;;;;;;0.63;0.63;;;;;;;30.73;70.11;103352.56;10465409;28;20102;-84
2023/12/15 12:01:08;;;;;;;0.93;0.65;;;;;;;30.67;69.08;103344.69;10448625;28;20561;-85
2023/12/15 12:06:10;;;;;;;1.13;0.90;;;;;;;29.82;70.30;103341.78;10447971;28;20045;-84
2023/12/15 12:11:12;;;;;;;3.83;1.02;;;;;;;30.58;70.02;103348.41;10459800;28;20052;-83
2023/12/15 12:16:17;;;;;;;0.68;0.47;;;;;;;30.58;70.30;103342.22;10460283;28;20506;-84
2023/12/15 12:21:19;;;;;;;2.85;0.98;;;;;;;30.00;70.56;103351.25;10450199;28;20573;-83
2023/12/15 12:26:21;;;;;;;0.05;0.05;;;;;;;30.12;68.41;103338.66;10448015;28;20044;-84
2023/12/15 12:31:24;;;;;;;0.82;0.80;;;;;;;32.64;67.32;103329.22;10440034;28;20037;-85
2023/12/15 12:36:26;;;;;;;1.58;1.05;;;;;;;29.20;70.60;103347.16;10442078;28;20120;-84
2023/12/15 12:41:27;;;;;;;1.27;1.17;;;;;;;30.88;68.29;103338.03;10461617;28;20119;-85
2023/12/15 12:46:30;;;;;;;1.45;1.13;;;;;;;30.44;69.23;103351.31;10455884;28;20040;-84
2023/12/15 12:51:33;;;;;;;0.90;0.68;;;;;;;30.42;68.82;103344.28;10453411;28;20407;-85
2023/12/15 12:56:34;;;;;;;6.25;1.08;;;;;;;30.83;68.71;103342.59;10444957;28;20075;-84
2023/12/15 13:01:42;;;;;;;0.52;0.52;;;;;;;30.92;67.68;103355.69;10473319;28;20459;-83
2023/12/15 13:06:44;;;;;;;1.02;0.60;;;;;;;30.86;68.55;103342.53;10447699;28;20056;-84
2023/12/15 13:11:47;;;;;;;1.92;0.93;;;;;;;30.33;68.19;103359.50;10464291;28;20044;-82
2023/12/15 13:16:50;;;;;;;1.48;1.15;;;;;;;29.35;68.72;103370.84;10437374;28;20049;-81
2023/12/15 13:21:52;;;;;;;2.13;0.90;;;;;;;29.93;67.36;103386.81;10432050;28;20483;-82
2023/12/15 13:26:54;;;;;;;0.77;0.70;;;;;;;29.80;66.07;103361.31;10429683;28;20040;-84
2023/12/15 13:31:57;;;;;;;2.60;1.05;;;;;;;30.22;67.38;103369.47;10437380;28;20144;-84
2023/12/15 13:36:59;;;;;;;0.93;0.90;;;;;;;29.89;67.81;103380.63;10452687;28;20041;-83
2023/12/15 13:42:03;;;;;;;0.32;0.30;;;;;;;30.68;66.50;103381.91;10454597;28;20664;-84
2023/12/15 13:47:05;;;;;;;2.45;0.77;;;;;;;29.46;67.15;103391.03;10439709;28;20061;-84
2023/12/15 13:52:07;;;;;;;0.50;0.40;;;;;;;30.16;67.09;103377.56;10475583;28;20358;-85
2023/12/15 13:57:09;;;;;;;2.25;1.52;;;;;;;31.26;65.41;103372.72;10455024;28;20095;-83
2023/12/15 14:02:11;;;;;;;0.38;0.38;;;;;;;30.27;65.49;103375.56;10435355;28;20045;-83
2023/12/15 14:07:13;;;;;;;1.13;0.47;;;;;;;30.52;65.99;103396.41;10439054;28;20502;-85
2023/12/15 14:12:15;;;;;;;0.15;0.10;;;;;;;31.89;64.39;103395.22;10467267;28;20110;-84
2023/12/15 14:17:17;;;;;;;1.35;0.75;;;;;;;30.45;63.93;103395.63;10447073;28;20044;-87
2023/12/15 14:22:19;;;;;;;3.20;0.85;;;;;;;30.04;64.00;103411.44;10456037;28;20071;-85
2023/12/15 14:27:21;;;;;;;0.40;0.28;;;;;;;30.71;64.16;103407.56;10452005;28;20045;-84
2023/12/15 14:32:23;;;;;;;1.15;0.50;;;;;;;31.69;62.05;103424.13;10448439;28;20124;-85
2023/12/15 14:37:26;;;;;;;0.57;0.57;;;;;;;31.45;62.25;103453.97;10463274;28;20087;-86
2023/12/15 14:42:28;;;;;;;0.17;0.17;;;;;;;29.17;64.00;103453.34;10447552;28;20140;-84
2023/12/15 14:47:30;;;;;;;1.30;0.30;;;;;;;31.23;62.96;103466.88;10429594;28;20079;-83
2023/12/15 14:52:53;;;;;;;1.25;0.70;;;;;;;30.72;62.69;103472.31;10439107;28;20041;-85
2023/12/15 14:57:55;;;;;;;3.10;0.60;;;;;;;29.01;63.13;103468.59;10435329;28;20133;-85
2023/12/15 15:02:57;;;;;;;0.43;0.40;;;;;;;30.15;62.98;103464.41;10434884;28;20041;-85
2023/12/15 15:07:59;;;;;;;0.75;0.43;;;;;;;30.82;61.16;103463.22;10423351;28;20044;-84
2023/12/15 15:13:01;;;;;;;0.47;0.47;;;;;;;31.11;60.99;103469.78;10432473;28;20132;-85
2023/12/15 15:18:02;;;;;;;1.10;0.38;;;;;;;31.25;60.43;103467.69;10458092;28;20072;-84
2023/12/15 15:23:04;;;;;;;0.75;0.20;;;;;;;30.43;61.70;103468.34;10451757;28;20045;-84
2023/12/15 15:28:08;;;;;;;0.20;0.20;;;;;;;30.71;60.16;103463.44;10447570;28;20044;-84
2023/12/15 15:33:10;;;;;;;0.30;0.30;;;;;;;28.94;62.29;103470.44;10440166;28;20049;-85
2023/12/15 15:38:12;;;;;;;0.35;0.35;;;;;;;28.62;62.09;103466.31;10459560;28;20064;-85
2023/12/15 15:43:14;;;;;;;0.00;0.00;;;;;;;30.02;62.19;103474.38;10453411;28;20136;-85
2023/12/15 15:48:16;;;;;;;0.68;0.50;;;;;;;29.78;61.96;103488.88;10450446;28;20075;-84
2023/12/15 15:53:18;;;;;;;3.42;1.23;;;;;;;29.50;62.53;103499.00;10463997;28;20049;-84
2023/12/15 15:58:20;;;;;;;0.10;0.10;;;;;;;28.05;62.70;103490.63;10435242;28;20033;-85
2023/12/15 16:03:22;;;;;;;0.47;0.38;;;;;;;29.95;61.59;103520.53;10463771;28;20043;-85
2023/12/15 16:08:24;;;;;;;0.82;0.40;;;;;;;29.48;61.11;103540.63;10433710;28;20045;-85
2023/12/15 16:13:26;;;;;;;0.47;0.38;;;;;;;27.83;63.53;103518.13;10442657;28;20189;-84
2023/12/15 16:18:28;;;;;;;2.47;1.42;;;;;;;28.16;63.33;103534.75;10456954;28;20039;-85
2023/12/15 16:23:30;;;;;;;7.03;1.35;;;;;;;26.07;62.86;103523.63;10426897;28;20053;-84
2023/12/15 16:28:31;;;;;;;0.90;0.47;;;;;;;27.96;62.30;103507.47;10450624;28;20045;-85
2023/12/15 16:33:33;;;;;;;1.75;0.73;;;;;;;29.87;59.68;103498.47;10446903;28;20079;-85
2023/12/15 16:38:35;;;;;;;0.35;0.35;;;;;;;30.34;58.92;103512.84;10452084;28;20511;-85
2023/12/15 16:43:37;;;;;;;0.55;0.13;;;;;;;30.05;59.03;103523.94;10452074;28;20048;-84
2023/12/15 16:48:43;;;;;;;0.10;0.10;;;;;;;29.86;58.78;103534.78;10437928;28;20530;-84
2023/12/15 16:53:45;;;;;;;0.00;0.00;;;;;;;32.84;55.80;103553.75;10483819;28;20061;-85
2023/12/15 16:58:47;;;;;;;0.00;0.00;;;;;;;32.36;56.84;103554.06;10459226;28;20557;-84
2023/12/15 17:03:49;;;;;;;0.80;0.38;;;;;;;30.15;58.21;103561.88;10466115;28;20060;-84
2023/12/15 17:08:51;;;;;;;0.47;0.43;;;;;;;28.80;58.14;103564.31;10457207;28;20095;-84
2023/12/15 17:13:53;;;;;;;0.47;0.17;;;;;;;30.76;58.21;103560.00;10445540;28;20136;-84
2023/12/15 17:18:55;;;;;;;0.10;0.10;;;;;;;30.22;56.08;103574.19;10447850;28;20056;-85
2023/12/15 17:23:57;;;;;;;0.10;0.03;;;;;;;29.10;59.57;103570.22;10450382;28;20103;-83
2023/12/15 17:28:58;;;;;;;0.10;0.10;;;;;;;28.94;59.39;103558.00;10454876;28;20107;-84
2023/12/15 17:34:00;;;;;;;0.00;0.00;;;;;;;30.31;57.67;103552.78;10435845;28;20044;-84
2023/12/15 17:39:02;;;;;;;0.08;0.08;;;;;;;30.62;57.16;103570.03;10447793;28;20045;-84
2023/12/15 17:44:05;;;;;;;0.00;0.00;;;;;;;31.38;54.88;103579.31;10460892;28;20144;-85
2023/12/15 17:49:07;;;;;;;1.77;0.28;;;;;;;30.03;57.89;103547.88;10457017;28;20046;-85
2023/12/15 17:54:12;;;;;;;0.10;0.08;;;;;;;29.48;57.34;103548.59;10446808;28;20100;-85
2023/12/15 17:59:14;;;;;;;0.55;0.55;;;;;;;29.81;56.65;103575.63;10457743;28;20132;-85
2023/12/15 18:04:15;;;;;;;0.05;0.05;;;;;;;28.21;59.05;103581.53;10449745;28;20857;-85
2023/12/15 18:09:17;;;;;;;0.22;0.10;;;;;;;29.26;58.00;103580.66;10437111;28;20064;-84
2023/12/15 18:14:20;;;;;;;0.28;0.17;;;;;;;27.80;59.79;103600.28;10445180;28;20057;-84
2023/12/15 18:19:22;;;;;;;6.43;0.52;;;;;;;28.46;58.31;103571.63;10452832;28;20124;-85
2023/12/15 18:24:24;;;;;;;0.28;0.10;;;;;;;29.37;56.07;103600.06;10461440;28;20063;-85
2023/12/15 18:29:26;;;;;;;0.15;0.13;;;;;;;27.35;58.76;103604.78;10443294;28;20128;-84
2023/12/15 18:34:27;;;;;;;0.28;0.13;;;;;;;28.44;58.60;103595.50;10435265;28;20116;-85
2023/12/15 18:39:30;;;;;;;0.10;0.10;;;;;;;29.11;57.43;103585.25;10444351;28;20040;-85
2023/12/15 18:44:31;;;;;;;0.05;0.05;;;;;;;30.75;55.89;103600.88;10453049;28;20045;-85
2023/12/15 18:49:33;;;;;;;0.10;0.00;;;;;;;27.72;58.40;103594.13;10449402;28;20072;-85
2023/12/15 18:54:35;;;;;;;0.30;0.05;;;;;;;27.99;58.66;103598.41;10454873;28;20073;-85
2023/12/15 18:59:37;;;;;;;0.00;0.00;;;;;;;27.29;59.05;103620.69;10437203;28;20451;-85
2023/12/15 19:04:40;;;;;;;0.00;0.00;;;;;;;26.89;59.67;103633.06;10448780;28;20049;-84
2023/12/15 19:09:42;;;;;;;0.95;0.47;;;;;;;28.27;58.62;103613.28;10452026;28;20051;-84
2023/12/15 19:14:44;;;;;;;0.15;0.08;;;;;;;28.76;58.29;103607.69;10445313;28;20048;-84
2023/12/15 19:19:46;;;;;;;0.90;0.30;;;;;;;30.11;55.60;103634.63;10431687;28;20099;-84
2023/12/15 19:24:49;;;;;;;0.00;0.00;;;;;;;29.37;56.88;103645.22;10447195;28;20041;-84
2023/12/15 19:29:54;;;;;;;0.40;0.10;;;;;;;28.17;56.97;103665.47;10427064;28;20052;-85
2023/12/15 19:34:56;;;;;;;0.85;0.30;;;;;;;29.42;56.84;103677.00;10435809;28;20122;-84
2023/12/15 19:40:01;;;;;;;0.13;0.13;;;;;;;28.31;57.43;103663.63;10444795;28;20151;-84
2023/12/15 19:45:03;;;;;;;0.00;0.00;;;;;;;26.52;59.95;103648.84;10448471;28;20052;-84
2023/12/15 19:50:06;;;;;;;0.10;0.10;;;;;;;26.53;58.97;103655.91;10443677;28;20051;-84
2023/12/15 19:55:08;;;;;;;1.17;0.30;;;;;;;27.74;59.42;103671.78;10445843;28;20041;-85
2023/12/15 20:00:11;;;;;;;0.45;0.25;;;;;;;27.31;58.74;103685.06;10446426;28;20072;-84
2023/12/15 20:05:18;;;;;;;0.15;0.10;;;;;;;27.77;58.62;103698.28;10453521;28;20510;-84
2023/12/15 20:10:21;;;;;;;0.90;0.35;;;;;;;26.42;58.82;103699.91;10439494;28;20037;-84
2023/12/15 20:15:24;;;;;;;0.35;0.25;;;;;;;27.63;59.42;103700.94;10450227;28;20044;-84
2023/12/15 20:20:26;;;;;;;3.20;1.45;;;;;;;27.19;57.36;103708.03;10428902;28;20480;-84
2023/12/15 20:25:28;;;;;;;10.48;0.43;;;;;;;27.95;58.40;103707.06;10452838;28;20045;-84
2023/12/15 20:30:30;;;;;;;0.30;0.25;;;;;;;26.50;59.08;103705.22;10461301;28;20040;-84
2023/12/15 20:35:31;;;;;;;0.10;0.10;;;;;;;28.31;58.59;103697.22;10439520;28;20040;-84
2023/12/15 20:40:33;;;;;;;0.60;0.38;;;;;;;26.91;59.30;103689.50;10443635;28;20653;-84
2023/12/15 20:45:35;;;;;;;0.20;0.10;;;;;;;27.49;58.45;103687.75;10457065;28;20118;-84
2023/12/15 20:50:37;;;;;;;0.15;0.13;;;;;;;27.75;58.90;103684.13;10464298;28;20131;-84
2023/12/15 20:55:40;;;;;;;0.00;0.00;;;;;;;26.84;59.47;103698.28;10440239;28;20049;-83
2023/12/15 21:00:41;;;;;;;0.20;0.17;;;;;;;27.64;58.24;103704.50;10483595;28;20053;-84
2023/12/15 21:05:43;;;;;;;0.52;0.25;;;;;;;26.05;61.62;103699.72;10455935;28;20095;-84
2023/12/15 21:10:45;;;;;;;0.00;0.00;;;;;;;26.81;60.71;103692.13;10464946;28;20049;-85
2023/12/15 21:15:47;;;;;;;14.90;1.38;;;;;;;25.02;61.75;103704.22;10455910;28;20501;-84
2023/12/15 21:20:49;;;;;;;0.32;0.32;;;;;;;25.81;62.17;103690.78;10449052;28;20468;-84
2023/12/15 21:25:51;;;;;;;0.70;0.20;;;;;;;27.22;60.85;103694.78;10447383;28;20053;-85
2023/12/15 21:30:53;;;;;;;0.85;0.10;;;;;;;27.70;59.60;103701.81;10448114;28;20143;-84
2023/12/15 21:35:55;;;;;;;3.30;1.33;;;;;;;26.62;61.11;103717.59;10456333;28;20041;-84
2023/12/15 21:40:58;;;;;;;4.65;0.60;;;;;;;28.41;58.72;103722.78;10455802;28;20407;-84
2023/12/15 21:46:00;;;;;;;0.05;0.03;;;;;;;29.39;57.81;103720.41;10435474;28;20074;-84
2023/12/15 21:51:02;;;;;;;0.10;0.10;;;;;;;28.03;58.62;103727.34;10460263;28;20057;-84
2023/12/15 21:56:08;;;;;;;0.00;0.00;;;;;;;26.85;59.66;103726.50;10447756;28;20048;-85
2023/12/15 22:01:14;;;;;;;0.00;0.00;;;;;;;26.84;59.12;103740.63;10449728;28;20045;-84
2023/12/15 22:06:17;;;;;;;0.00;0.00;;;;;;;26.59;59.97;103724.66;10454233;28;20476;-84
2023/12/15 22:11:18;;;;;;;0.10;0.10;;;;;;;27.49;59.09;103724.81;10427267;28;20045;-84
2023/12/15 22:16:20;;;;;;;1.13;0.38;;;;;;;28.45;57.68;103732.50;10461048;28;20055;-84
2023/12/15 22:21:22;;;;;;;0.80;0.63;;;;;;;27.76;57.95;103725.63;10448270;28;20056;-84
2023/12/15 22:26:25;;;;;;;2.53;0.50;;;;;;;30.25;56.46;103723.03;10436564;28;20080;-84
2023/12/15 22:31:27;;;;;;;0.00;0.00;;;;;;;27.70;58.12;103733.59;10439051;28;20076;-83
2023/12/15 22:36:29;;;;;;;0.28;0.17;;;;;;;27.16;58.66;103737.13;10450173;28;20069;-83
2023/12/15 22:41:31;;;;;;;1.27;0.40;;;;;;;27.86;58.02;103743.28;10432477;28;20135;-84
2023/12/15 22:46:39;;;;;;;0.52;0.30;;;;;;;26.96;58.96;103738.88;10445033;28;20037;-83
2023/12/15 22:51:41;;;;;;;0.43;0.25;;;;;;;26.91;60.34;103745.03;10448748;28;20139;-84
2023/12/15 22:56:43;;;;;;;0.00;0.00;;;;;;;27.16;59.64;103753.00;10439961;28;20052;-84
2023/12/15 23:01:46;;;;;;;0.03;0.00;;;;;;;26.92;59.70;103762.66;10451394;28;20543;-84
2023/12/15 23:06:49;;;;;;;0.10;0.10;;;;;;;27.24;58.60;103751.25;10444749;28;20040;-84
2023/12/15 23:11:50;;;;;;;0.20;0.20;;;;;;;28.35;58.74;103738.72;10465170;28;20076;-84